Flight Track Log - Related Links

Times and Time Zones

All times are in EDT time to prevent confusion due to time zone crossing. See the UAL3776 flight status page for this flight to view local times or setup timezone preferences in your user account.

Time Position Orientation Groundspeed Altitude Reporting Facility
EDT Latitude Longitude Course Direction KTS MPH feet Rate Location/Type
Wed 12:28:37 PM 35.2331 -80.9594 52° Northeast 150 173 1,800  Level Atlanta Center
Wed 12:29:38 PM 35.2778 -80.9936 328° Northwest 222 255 3,100 1,586 Climbing Atlanta Center
Wed 12:30:04 PM 35.3097 -81.0128 334° Northwest 262 302 4,100 2,581 Climbing Atlanta Center
Wed 12:31:00 PM 35.1167 -81.1952 270° West  Level FlightAware Approximate
Wed 12:31:04 PM 35.3758 -80.9925 14° North 280 322 6,800  Level Atlanta Center
Wed 12:32:00 PM 35.2083 -81.2167 North  Level FlightAware Approximate
Wed 12:32:04 PM 35.4483 -80.9719 13° North 270 311 9,500  Level Atlanta Center
Wed 12:33:00 PM 35.2874 -81.1602 52° Northeast  Level FlightAware Approximate
Wed 12:33:04 PM 35.5311 -80.9458 14° North 286 329 10,900  Level Atlanta Center
Wed 12:34:00 PM 35.3546 -81.0548 52° Northeast  Level FlightAware Approximate
Wed 12:34:04 PM 35.6242 -80.9142 15° North 329 379 13,300  Level Atlanta Center
Wed 12:35:04 PM 35.7197 -80.8900 12° North 351 404 15,400 2,050 Climbing Atlanta Center
Wed 12:36:04 PM 35.8214 -80.8733 North 367 422 17,400 1,750 Climbing Atlanta Center
Wed 12:37:04 PM 35.9258 -80.8744 360° North 373 429 18,900 1,450 Climbing Atlanta Center
Wed 12:38:04 PM 36.0194 -80.9478 328° Northwest 367 422 20,300 1,650 Climbing Atlanta Center
Wed 12:39:04 PM 36.1092 -81.0317 323° Northwest 399 459 22,200 1,650 Climbing Atlanta Center
Wed 12:40:04 PM 36.1928 -81.1314 316° Northwest 412 474 23,600 1,350 Climbing Atlanta Center
Wed 12:41:04 PM 36.2681 -81.2242 315° West 418 481 24,900 1,250 Climbing Atlanta Center
Wed 12:42:04 PM 36.3517 -81.3294 315° West 424 488 26,100 1,200 Climbing Atlanta Center
Wed 12:43:04 PM 36.4353 -81.4325 315° West 424 488 27,300 1,150 Climbing Atlanta Center
Wed 12:44:04 PM 36.5208 -81.5408 315° West 430 495 28,400 1,350 Climbing Atlanta Center
Wed 12:45:04 PM 36.6108 -81.6569 314° West 425 489 30,000 1,299 Climbing Atlanta Center
Wed 12:47:18 PM 36.7886 -81.8736 316° Northwest 417 480 32,600 1,200 Climbing Indianapolis Center
Wed 12:48:19 PM 36.8703 -81.9753 315° West 415 478 33,900 1,171 Climbing Indianapolis Center
Wed 12:49:21 PM 36.9622 -82.0919 315° West 406 467 35,000 919 Climbing Indianapolis Center
Wed 12:50:23 PM 37.0411 -82.1931 314° West 408 470 35,800 484 Climbing Indianapolis Center
Wed 12:51:25 PM 37.1211 -82.2950 315° West 410 472 36,000 97 Climbing Indianapolis Center
Wed 12:52:27 PM 37.2047 -82.4019 314° West 427 491 36,000  Level Indianapolis Center
Wed 12:53:29 PM 37.2908 -82.5119 315° West 440 506 36,000  Level Indianapolis Center
Wed 12:54:31 PM 37.3919 -82.6428 314° West 447 514 36,000  Level Indianapolis Center
Wed 12:55:33 PM 37.4778 -82.7539 314° West 446 513 36,000  Level Indianapolis Center
Wed 12:56:35 PM 37.5644 -82.8675 314° West 449 517 36,000  Level Indianapolis Center
Wed 12:57:37 PM 37.6503 -82.9783 314° West 443 510 36,000  Level Indianapolis Center
Wed 12:58:39 PM 37.7489 -83.0717 323° Northwest 440 506 36,000  Level Indianapolis Center
Wed 12:59:41 PM 37.8672 -83.1794 324° Northwest 446 513 36,000  Level Indianapolis Center
Wed 01:00:43 PM 37.9675 -83.2714 324° Northwest 445 512 36,000  Level Indianapolis Center
Wed 01:01:45 PM 38.0675 -83.3625 324° Northwest 444 511 36,000  Level Indianapolis Center
Wed 01:02:47 PM 38.1689 -83.4542 325° Northwest 445 512 36,000  Level Indianapolis Center
Wed 01:03:49 PM 38.2681 -83.5467 324° Northwest 443 510 36,000  Level Indianapolis Center
Wed 01:04:51 PM 38.3850 -83.6556 324° Northwest 445 512 36,000  Level Indianapolis Center
Wed 01:05:53 PM 38.4847 -83.7478 324° Northwest 443 510 36,000  Level Indianapolis Center
Wed 01:06:55 PM 38.5853 -83.8419 324° Northwest 445 512 36,000  Level Indianapolis Center
Wed 01:07:57 PM 38.6894 -83.9361 325° Northwest 445 512 36,000  Level Indianapolis Center
Wed 01:08:59 PM 38.7903 -84.0317 324° Northwest 448 516 36,000  Level Indianapolis Center
Wed 01:10:01 PM 38.8925 -84.1283 324° Northwest 450 518 36,000  Level Indianapolis Center
Wed 01:11:03 PM 38.9942 -84.2228 324° Northwest 448 516 36,000  Level Indianapolis Center
Wed 01:12:05 PM 39.0975 -84.3208 324° Northwest 453 521 36,000  Level Indianapolis Center
Wed 01:13:07 PM 39.2000 -84.4197 323° Northwest 454 522 36,000  Level Indianapolis Center
Wed 01:14:09 PM 39.3219 -84.5356 324° Northwest 460 529 36,000 -1,016 Level Indianapolis Center
Wed 01:15:11 PM 39.4258 -84.6342 324° Northwest 458 527 33,900 -2,758 Descending Indianapolis Center
Wed 01:16:13 PM 39.5300 -84.7339 324° Northwest 460 529 30,300 -2,806 Descending Indianapolis Center
Wed 01:17:15 PM 39.6347 -84.8358 323° Northwest 463 533 28,100 -1,113 Descending Indianapolis Center
Wed 01:18:17 PM 39.7331 -84.9311 323° Northwest 458 527 28,000 -581 Descending Indianapolis Center
Wed 01:19:19 PM 39.8361 -85.0328 323° Northwest 462 532 26,900 -968 Descending Indianapolis Center
Wed 01:20:21 PM 39.9586 -85.1494 324° Northwest 466 536 26,000 -435 Descending Indianapolis Center
Wed 01:21:23 PM 40.0611 -85.2522 323° Northwest 463 533 26,000  Level Indianapolis Center
Wed 01:22:25 PM 40.1661 -85.3547 323° Northwest 469 540 26,000  Level Indianapolis Center
Wed 01:23:27 PM 40.2689 -85.4569 323° Northwest 464 534 26,000 -244 Level Indianapolis Center
Wed 01:24:28 PM 40.3714 -85.5586 323° Northwest 462 532 25,500 -927 Descending Indianapolis Center
Wed 01:25:30 PM 40.4767 -85.6608 324° Northwest 467 537 24,100 -1,306 Descending Indianapolis Center
Wed 01:26:32 PM 40.6058 -85.7528 332° Northwest 458 527 22,800 -1,016 Descending Indianapolis Center
Wed 01:27:34 PM 40.7053 -85.8650 319° Northwest 468 539 22,000 -387 Descending Indianapolis Center
Wed 01:28:36 PM 40.8028 -85.9711 321° Northwest 456 525 22,000  Level Indianapolis Center
Wed 01:29:38 PM 40.9000 -86.0775 320° Northwest 454 522 22,000  Level Indianapolis Center
Wed 01:30:40 PM 40.9969 -86.1839 320° Northwest 450 518 22,000  Level Indianapolis Center
Wed 01:31:41 PM 41.0942 -86.2906 320° Northwest 451 519 22,000 -829 Level Indianapolis Center
Wed 01:32:43 PM 41.1900 -86.3964 320° Northwest 446 513 20,300 -2,146 Descending Indianapolis Center
Wed 01:33:58 PM 41.3133 -86.5339 320° Northwest 430 495 17,100 -2,496 Descending Chicago Center
Wed 01:35:00 PM 41.3978 -86.6264 321° Northwest 400 460 14,600 -2,371 Descending Chicago Center
Wed 01:36:02 PM 41.4800 -86.7189 320° Northwest 395 455 12,200 -1,268 Descending Chicago Center
Wed 01:37:03 PM 41.5850 -86.7686 340° North 411 473 12,000 -49 Descending Chicago Center
Wed 01:38:05 PM 41.7108 -86.8019 349° North 393 452 12,100 -484 Climbing Chicago Center
Wed 01:39:07 PM 41.8189 -86.8189 353° North 395 455 11,000 -532 Descending Chicago Center
Wed 01:40:09 PM 41.9011 -86.8686 336° Northwest 333 383 11,000 -435 Level Chicago Center
Wed 01:41:11 PM 41.9567 -86.9575 310° West 313 360 10,100 -435 Descending Chicago Center
Wed 01:42:13 PM 41.9817 -87.0656 287° West 304 350 10,100 -339 Level Chicago Center
Wed 01:43:15 PM 41.9831 -87.1950 271° West 293 337 9,400 -919 Descending Chicago Center
Wed 01:44:17 PM 41.9831 -87.2944 270° West 274 315 8,200 -1,065 Descending Chicago Center
Wed 01:45:19 PM 41.9831 -87.3814 270° West 238 274 7,200 -581 Descending Chicago Center
Wed 01:46:21 PM 41.9828 -87.4583 270° West 208 239 7,000 -514 Descending Chicago Center
Wed 01:47:04 PM 41.9833 -87.5167 271° West 190 219 6,300 -1,107 Descending Chicago TRACON
Wed 01:48:04 PM 41.9833 -87.5833 270° West 180 207 5,100 -1,100 Descending Chicago TRACON
Wed 01:49:04 PM 41.9833 -87.6500 270° West 185 213 4,100 -1,000 Descending Chicago TRACON

Login

Don't have an account? Register now (free) for customized features, flight alerts, and more!